Time;durP1;ratioP1;P1;durP2;ratioP2;P2;SDS_P1;SDS_P2;PMS_P1;PMS_P2;Temp;Humidity;BMP_temperature;BMP_pressure;BME280_temperature;BME280_humidity;BME280_pressure;Samples;Min_cycle;Max_cycle;Signal;HPM_P1;HPM_P2
2022/01/15 00:00:38;;;;;;;11.48;6.60;;;6.80;99.90;;;;;;5136034;27;20163;-64
2022/01/15 00:03:06;;;;;;;12.48;6.60;;;6.80;99.90;;;;;;5135419;27;20047;-64
2022/01/15 00:05:33;;;;;;;9.93;6.40;;;6.80;99.90;;;;;;5135750;27;20110;-65
2022/01/15 00:08:00;;;;;;;9.82;6.35;;;6.90;99.90;;;;;;5134921;27;20045;-65
2022/01/15 00:10:28;;;;;;;13.00;6.05;;;6.90;99.90;;;;;;5135990;27;20126;-65
2022/01/15 00:12:59;;;;;;;12.38;5.95;;;6.90;99.90;;;;;;5135988;27;20051;-65
2022/01/15 00:15:35;;;;;;;9.55;5.65;;;6.90;99.90;;;;;;5135523;27;20082;-65
2022/01/15 00:18:05;;;;;;;9.77;5.50;;;6.90;99.90;;;;;;5135330;27;20047;-65
2022/01/15 00:20:32;;;;;;;11.93;5.43;;;6.90;99.90;;;;;;5136297;27;20112;-64
2022/01/15 00:22:59;;;;;;;11.50;5.18;;;6.80;99.90;;;;;;5136171;27;20126;-66
2022/01/15 00:25:30;;;;;;;14.10;6.20;;;6.80;99.90;;;;;;5135393;27;20049;-65
2022/01/15 00:27:57;;;;;;;11.15;5.82;;;6.80;99.90;;;;;;5116931;27;20045;-66
2022/01/15 00:30:22;;;;;;;12.50;6.43;;;6.80;99.90;;;;;;5100256;27;20078;-65
2022/01/15 00:32:49;;;;;;;10.93;6.07;;;6.80;99.90;;;;;;5135419;27;20071;-64
2022/01/15 00:35:16;;;;;;;11.30;6.22;;;6.80;99.90;;;;;;5117119;27;20070;-65
2022/01/15 00:37:43;;;;;;;13.07;5.97;;;6.80;99.90;;;;;;5116541;27;20035;-65
2022/01/15 00:40:11;;;;;;;10.50;5.78;;;6.80;99.90;;;;;;5134690;27;20031;-65
2022/01/15 00:42:38;;;;;;;9.00;5.38;;;6.80;99.90;;;;;;5135183;27;20035;-66
2022/01/15 00:45:10;;;;;;;8.52;4.70;;;6.80;99.90;;;;;;5116770;27;20043;-64
2022/01/15 00:47:36;;;;;;;10.13;5.00;;;6.80;99.90;;;;;;5117530;27;20058;-64
2022/01/15 00:50:04;;;;;;;6.82;3.90;;;6.70;99.90;;;;;;5117274;27;20039;-65
2022/01/15 00:52:30;;;;;;;7.35;3.88;;;6.70;99.90;;;;;;5117370;27;20047;-65
2022/01/15 00:54:56;;;;;;;8.75;4.20;;;6.70;99.90;;;;;;5099846;27;20578;-65
2022/01/15 00:57:22;;;;;;;8.57;4.45;;;6.70;99.90;;;;;;5116456;27;20452;-65
2022/01/15 00:59:50;;;;;;;10.52;4.35;;;6.70;99.90;;;;;;5116699;27;20112;-65
2022/01/15 01:02:16;;;;;;;6.72;3.85;;;6.70;99.90;;;;;;5134672;27;20460;-65
2022/01/15 01:04:42;;;;;;;7.93;3.42;;;6.80;99.90;;;;;;5116378;27;20126;-66
2022/01/15 01:07:09;;;;;;;6.57;3.67;;;6.80;99.90;;;;;;5116229;27;20121;-65
2022/01/15 01:12:31;;;;;;;9.02;3.85;;;6.80;99.90;;;;;;5116727;27;20062;-64
2022/01/15 01:21:02;;;;;;;6.83;3.00;;;6.90;99.90;;;;;;5116375;27;20452;-65
2022/01/15 01:23:15;;;;;;;5.88;3.45;;;6.90;99.90;;;;;;5132474;27;20426;-64
2022/01/15 01:25:44;;;;;;;7.68;3.50;;;6.80;99.90;;;;;;5134135;27;20039;-65
2022/01/15 01:28:34;;;;;;;6.18;3.60;;;6.80;99.90;;;;;;5133556;27;20090;-64
2022/01/15 01:31:23;;;;;;;6.32;3.13;;;6.70;99.90;;;;;;5102918;27;20046;-65
2022/01/15 01:33:52;;;;;;;6.65;3.38;;;6.70;99.90;;;;;;5115728;27;20130;-66
2022/01/15 01:36:25;;;;;;;6.40;3.42;;;6.80;99.90;;;;;;5133189;27;20035;-65
2022/01/15 01:38:54;;;;;;;7.22;3.50;;;6.80;99.90;;;;;;5116054;27;20156;-65
2022/01/15 01:41:22;;;;;;;7.45;3.42;;;6.70;99.90;;;;;;5116154;27;20467;-66
2022/01/15 01:43:59;;;;;;;6.30;3.75;;;6.80;99.90;;;;;;5115831;27;20451;-66
2022/01/15 01:48:54;;;;;;;5.82;3.20;;;6.80;99.90;;;;;;5115873;28;20051;-66
2022/01/15 01:51:31;;;;;;;6.60;3.33;;;6.80;99.90;;;;;;5115985;28;20043;-65
2022/01/15 01:53:59;;;;;;;8.73;3.30;;;6.90;99.90;;;;;;5115821;28;20093;-66
2022/01/15 01:56:25;;;;;;;5.57;3.35;;;6.90;99.90;;;;;;5115336;28;20118;-65
2022/01/15 01:58:51;;;;;;;6.57;4.03;;;6.90;99.90;;;;;;5115791;28;20496;-64
2022/01/15 02:01:17;;;;;;;9.68;3.95;;;6.90;99.90;;;;;;5134092;28;20179;-64
2022/01/15 02:03:42;;;;;;;7.75;3.83;;;6.80;99.90;;;;;;5115447;28;20039;-63
2022/01/15 02:06:08;;;;;;;6.97;3.72;;;6.80;99.90;;;;;;5115522;28;20043;-65
2022/01/15 02:08:35;;;;;;;5.72;3.97;;;6.70;99.90;;;;;;5134157;28;20043;-65
2022/01/15 02:11:03;;;;;;;6.53;3.63;;;6.80;99.90;;;;;;5098944;28;20031;-64
2022/01/15 02:13:30;;;;;;;7.07;3.63;;;6.70;99.90;;;;;;5116263;28;20116;-66
2022/01/15 02:15:57;;;;;;;6.00;3.58;;;6.70;99.90;;;;;;5133095;28;20055;-65
2022/01/15 02:18:24;;;;;;;6.82;3.20;;;6.70;99.90;;;;;;5114881;28;20083;-64
2022/01/15 02:23:35;;;;;;;6.07;3.30;;;6.70;99.90;;;;;;5081077;28;20075;-65
2022/01/15 02:26:04;;;;;;;5.85;2.92;;;6.70;99.90;;;;;;5095361;28;20097;-65
2022/01/15 02:28:34;;;;;;;4.95;3.20;;;6.70;99.90;;;;;;5112758;28;20044;-65
2022/01/15 02:31:06;;;;;;;6.28;3.80;;;6.70;99.90;;;;;;5095061;28;20478;-66
2022/01/15 02:33:32;;;;;;;6.38;3.40;;;6.70;99.90;;;;;;5113565;28;20039;-66
2022/01/15 02:35:59;;;;;;;5.50;2.80;;;6.80;99.90;;;;;;5094812;28;20042;-65
2022/01/15 02:38:28;;;;;;;4.35;2.83;;;6.80;99.90;;;;;;5093486;28;20174;-65
2022/01/15 02:40:54;;;;;;;6.95;2.83;;;6.70;99.90;;;;;;5093074;28;20131;-64
2022/01/15 02:43:27;;;;;;;5.30;3.03;;;6.70;99.90;;;;;;5093006;28;20123;-65
2022/01/15 02:45:57;;;;;;;5.47;3.20;;;6.70;99.90;;;;;;5057836;28;20845;-65
2022/01/15 02:48:28;;;;;;;5.40;3.13;;;6.60;99.90;;;;;;5093332;28;20044;-66
2022/01/15 02:50:56;;;;;;;6.10;2.80;;;6.60;99.90;;;;;;5113104;28;20628;-64
2022/01/15 02:53:22;;;;;;;6.00;3.08;;;6.60;99.90;;;;;;5113152;28;20479;-65
2022/01/15 02:55:51;;;;;;;4.72;2.78;;;6.60;99.90;;;;;;5112989;28;20036;-65
2022/01/15 02:58:20;;;;;;;4.18;2.50;;;6.60;99.90;;;;;;5095194;28;20075;-64
2022/01/15 03:00:47;;;;;;;4.28;2.50;;;6.60;99.90;;;;;;5092681;28;20099;-65
2022/01/15 03:03:13;;;;;;;4.90;2.67;;;6.60;99.90;;;;;;5077249;28;20089;-66
2022/01/15 03:05:38;;;;;;;5.05;2.55;;;6.70;99.90;;;;;;5078012;28;20050;-64
2022/01/15 03:08:04;;;;;;;5.35;2.83;;;6.70;99.90;;;;;;5093772;28;20043;-65
2022/01/15 03:10:30;;;;;;;4.93;2.60;;;6.70;99.90;;;;;;5098368;28;20048;-66
2022/01/15 03:12:57;;;;;;;3.80;2.20;;;6.70;99.90;;;;;;5116627;28;20100;-65
2022/01/15 03:15:24;;;;;;;4.03;2.20;;;6.70;99.90;;;;;;5085039;27;20043;-65
2022/01/15 03:17:53;;;;;;;3.53;2.17;;;6.70;99.90;;;;;;5088035;28;20123;-64
2022/01/15 03:20:20;;;;;;;4.78;2.30;;;6.70;99.90;;;;;;5098359;28;20043;-66
2022/01/15 03:22:47;;;;;;;4.78;2.20;;;6.70;99.90;;;;;;5098368;28;20134;-64
2022/01/15 03:25:13;;;;;;;4.28;2.50;;;6.70;99.90;;;;;;5116393;28;20364;-65
2022/01/15 03:27:39;;;;;;;3.20;2.08;;;6.70;99.90;;;;;;5110871;27;20046;-65
2022/01/15 03:30:08;;;;;;;3.92;2.00;;;6.70;99.90;;;;;;5136999;27;20035;-65
2022/01/15 03:32:34;;;;;;;3.97;1.88;;;6.70;99.90;;;;;;5118253;27;20039;-64
2022/01/15 03:34:59;;;;;;;3.65;2.00;;;6.70;99.90;;;;;;5136790;27;20035;-65
2022/01/15 03:37:25;;;;;;;3.70;1.85;;;6.70;99.90;;;;;;5136583;27;20046;-65
2022/01/15 03:39:51;;;;;;;3.83;2.10;;;6.70;99.90;;;;;;5136973;27;20039;-65
2022/01/15 03:42:17;;;;;;;4.03;2.10;;;6.70;99.90;;;;;;5118382;27;20462;-66
2022/01/15 03:44:46;;;;;;;4.13;2.20;;;6.70;99.90;;;;;;5135957;27;20095;-64
2022/01/15 03:47:13;;;;;;;3.08;1.90;;;6.70;99.90;;;;;;5117517;27;20046;-65
2022/01/15 03:49:40;;;;;;;4.53;1.90;;;6.70;99.90;;;;;;5118113;27;20074;-64
2022/01/15 03:52:07;;;;;;;3.72;1.90;;;6.70;99.90;;;;;;5136467;27;20061;-66
2022/01/15 03:54:33;;;;;;;4.90;2.17;;;6.70;99.90;;;;;;5117863;27;20039;-65
2022/01/15 03:56:59;;;;;;;5.35;2.35;;;6.60;99.90;;;;;;5100700;27;20039;-64
2022/01/15 03:59:25;;;;;;;3.85;2.30;;;6.60;99.90;;;;;;5117841;27;20660;-66
2022/01/15 04:01:51;;;;;;;3.53;2.38;;;6.60;99.90;;;;;;5136300;27;20092;-65
2022/01/15 04:04:17;;;;;;;4.35;2.30;;;6.60;99.90;;;;;;5135772;27;20039;-65
2022/01/15 04:06:43;;;;;;;3.22;2.05;;;6.60;99.90;;;;;;5135835;27;20073;-65
2022/01/15 04:09:10;;;;;;;2.95;2.10;;;6.60;99.90;;;;;;5135821;27;20082;-64
2022/01/15 04:11:36;;;;;;;4.25;2.50;;;6.60;99.90;;;;;;5135958;27;20382;-64
2022/01/15 04:14:05;;;;;;;3.42;1.92;;;6.50;99.90;;;;;;5134703;27;20035;-64
2022/01/15 04:16:31;;;;;;;3.63;2.22;;;6.50;99.90;;;;;;5116877;27;20162;-66
2022/01/15 04:19:00;;;;;;;5.35;2.50;;;6.60;99.90;;;;;;5117500;27;20118;-65
2022/01/15 04:21:28;;;;;;;5.53;2.63;;;6.60;99.90;;;;;;5117658;27;20042;-65
2022/01/15 04:23:54;;;;;;;4.68;2.60;;;6.50;99.90;;;;;;5135481;27;20038;-65
2022/01/15 04:26:25;;;;;;;4.90;2.53;;;6.50;99.90;;;;;;5116439;27;20474;-64
2022/01/15 04:28:54;;;;;;;4.13;2.63;;;6.50;99.90;;;;;;5135838;27;20042;-65
2022/01/15 04:31:20;;;;;;;5.15;2.88;;;6.50;99.90;;;;;;5135290;27;20034;-66
2022/01/15 04:33:46;;;;;;;5.35;2.92;;;6.50;99.90;;;;;;5116926;27;20050;-64
2022/01/15 04:36:12;;;;;;;4.65;2.70;;;6.50;99.90;;;;;;5117570;27;20031;-65
2022/01/15 04:38:39;;;;;;;5.40;2.85;;;6.40;99.90;;;;;;5116651;27;20107;-65
2022/01/15 04:41:06;;;;;;;5.35;2.85;;;6.40;99.90;;;;;;5135478;27;20087;-64
2022/01/15 04:43:32;;;;;;;4.80;3.00;;;6.40;99.90;;;;;;5117112;27;20038;-64
2022/01/15 04:45:58;;;;;;;4.38;2.55;;;6.40;99.90;;;;;;5117353;27;20458;-64
2022/01/15 04:48:24;;;;;;;4.75;2.65;;;6.40;99.90;;;;;;5134611;27;20055;-64
2022/01/15 04:50:50;;;;;;;4.47;2.72;;;6.40;99.90;;;;;;5135067;27;20104;-65
2022/01/15 04:53:16;;;;;;;5.43;2.90;;;6.40;99.90;;;;;;5117029;27;20046;-64
2022/01/15 04:55:41;;;;;;;5.00;3.00;;;6.30;99.90;;;;;;5116620;27;20456;-65
2022/01/15 04:58:10;;;;;;;4.38;2.40;;;6.40;99.90;;;;;;5134949;27;20070;-65
2022/01/15 05:00:36;;;;;;;4.43;3.00;;;6.30;99.90;;;;;;5135180;27;20035;-64
2022/01/15 05:03:03;;;;;;;4.95;2.58;;;6.30;99.90;;;;;;5116966;27;20057;-66
2022/01/15 05:05:29;;;;;;;5.28;2.78;;;6.30;99.90;;;;;;5116755;27;20120;-65
2022/01/15 05:07:55;;;;;;;3.63;2.10;;;6.40;99.90;;;;;;5116177;27;20043;-65
2022/01/15 05:10:27;;;;;;;4.68;2.40;;;6.30;99.90;;;;;;5134675;27;20419;-64
2022/01/15 05:12:56;;;;;;;3.75;2.10;;;6.30;99.90;;;;;;5134768;27;20096;-63
2022/01/15 05:15:22;;;;;;;3.55;2.00;;;6.30;99.90;;;;;;5134417;27;20047;-64
2022/01/15 05:17:48;;;;;;;4.00;2.10;;;6.30;99.90;;;;;;5134010;27;20046;-64
2022/01/15 05:20:19;;;;;;;2.95;2.00;;;6.30;99.90;;;;;;5116509;27;20122;-64
2022/01/15 05:22:46;;;;;;;3.80;2.30;;;6.30;99.90;;;;;;5134788;27;20054;-64
2022/01/15 05:25:13;;;;;;;4.28;2.20;;;6.30;99.90;;;;;;5134045;27;20076;-66
2022/01/15 05:27:39;;;;;;;3.53;1.92;;;6.20;99.90;;;;;;5133551;27;20050;-64
2022/01/15 05:30:06;;;;;;;4.30;2.20;;;6.30;99.90;;;;;;5116209;27;20043;-64
2022/01/15 05:32:32;;;;;;;3.53;2.10;;;6.20;99.90;;;;;;5116260;27;20045;-65
2022/01/15 05:35:01;;;;;;;3.97;2.00;;;6.20;99.90;;;;;;5116704;27;20126;-64
2022/01/15 05:37:27;;;;;;;3.55;2.22;;;6.20;99.90;;;;;;5133556;27;20089;-66
2022/01/15 05:39:53;;;;;;;4.82;2.05;;;6.20;99.90;;;;;;5116394;27;20125;-65
2022/01/15 05:42:19;;;;;;;4.18;2.05;;;6.10;99.90;;;;;;5134323;27;20445;-65
2022/01/15 05:44:44;;;;;;;5.03;1.90;;;6.10;99.90;;;;;;5133828;27;20042;-64
2022/01/15 05:47:10;;;;;;;3.42;2.00;;;6.10;99.90;;;;;;5115410;27;20131;-65
2022/01/15 05:49:36;;;;;;;3.38;1.88;;;6.10;99.90;;;;;;5134066;27;20046;-64
2022/01/15 05:52:03;;;;;;;3.67;1.98;;;6.10;99.90;;;;;;5134117;27;20039;-66
2022/01/15 05:54:29;;;;;;;2.97;1.73;;;6.10;99.90;;;;;;5133772;27;20042;-66
2022/01/15 05:56:55;;;;;;;3.05;2.10;;;6.10;99.90;;;;;;5133395;27;20031;-64
2022/01/15 05:59:20;;;;;;;3.67;2.17;;;6.10;99.90;;;;;;5134264;27;20047;-65
2022/01/15 06:01:46;;;;;;;4.57;2.53;;;6.10;99.90;;;;;;5115533;27;20051;-64
2022/01/15 06:04:11;;;;;;;5.82;2.70;;;6.10;99.90;;;;;;5115411;28;20043;-65
2022/01/15 06:06:38;;;;;;;3.90;2.40;;;6.10;99.90;;;;;;5133946;28;20039;-65
2022/01/15 06:09:10;;;;;;;4.90;2.63;;;6.00;99.90;;;;;;5133524;28;20464;-64
2022/01/15 06:11:37;;;;;;;4.03;2.50;;;6.00;99.90;;;;;;5115469;28;20118;-66
2022/01/15 06:14:04;;;;;;;4.20;2.65;;;6.00;99.90;;;;;;5115427;28;20477;-65
2022/01/15 06:16:30;;;;;;;3.92;2.40;;;6.00;99.90;;;;;;5115070;28;20487;-65
2022/01/15 06:18:56;;;;;;;3.70;1.98;;;6.00;99.90;;;;;;5133999;28;20067;-65
2022/01/15 06:21:22;;;;;;;3.85;2.20;;;6.00;99.90;;;;;;5115654;28;20051;-64
2022/01/15 06:23:47;;;;;;;4.07;2.30;;;6.00;99.90;;;;;;5115262;28;20070;-64
2022/01/15 06:26:13;;;;;;;4.35;2.25;;;6.00;99.90;;;;;;5115960;28;20043;-64
2022/01/15 06:28:39;;;;;;;4.20;2.08;;;5.90;99.90;;;;;;5114994;28;20402;-65
2022/01/15 06:31:05;;;;;;;3.33;2.08;;;5.90;99.90;;;;;;5115570;28;20105;-64
2022/01/15 06:33:31;;;;;;;3.47;1.92;;;5.80;99.90;;;;;;5134036;28;20358;-64
2022/01/15 06:35:56;;;;;;;3.90;2.28;;;5.80;99.90;;;;;;5133910;28;20031;-65
2022/01/15 06:38:22;;;;;;;5.22;2.55;;;5.90;99.90;;;;;;5117484;27;20452;-65
2022/01/15 06:40:48;;;;;;;4.13;2.40;;;5.80;99.90;;;;;;5119565;27;20039;-65
2022/01/15 06:43:16;;;;;;;4.45;2.38;;;5.80;99.90;;;;;;5119729;27;20038;-66
2022/01/15 06:45:42;;;;;;;4.57;2.25;;;5.80;99.90;;;;;;5137999;27;20087;-64
2022/01/15 06:48:08;;;;;;;4.40;2.55;;;5.90;99.90;;;;;;5119082;27;20039;-65
2022/01/15 06:50:34;;;;;;;5.38;2.67;;;5.80;99.90;;;;;;5117275;27;20031;-64
2022/01/15 06:52:59;;;;;;;4.53;2.53;;;5.80;99.90;;;;;;5132523;27;20437;-63
2022/01/15 06:55:26;;;;;;;7.53;3.10;;;5.80;99.90;;;;;;5121061;27;20023;-63
2022/01/15 06:57:52;;;;;;;6.93;3.28;;;5.80;99.90;;;;;;5105221;28;21450;-64
2022/01/15 07:00:18;;;;;;;5.50;3.17;;;5.80;99.90;;;;;;5118505;27;20104;-64
2022/01/15 07:02:44;;;;;;;5.93;3.22;;;5.70;99.90;;;;;;5126270;27;20036;-65
2022/01/15 07:05:11;;;;;;;5.43;3.17;;;5.70;99.90;;;;;;5105118;27;20047;-65
2022/01/15 07:07:44;;;;;;;4.50;2.50;;;5.80;99.90;;;;;;5126514;27;20050;-66
2022/01/15 07:10:13;;;;;;;4.38;2.50;;;5.70;99.90;;;;;;5127684;27;20177;-65
2022/01/15 07:12:39;;;;;;;4.63;2.45;;;5.70;99.90;;;;;;5119347;27;20116;-65
2022/01/15 07:15:06;;;;;;;4.13;2.33;;;5.70;99.90;;;;;;5117838;27;20469;-65
2022/01/15 07:17:31;;;;;;;4.43;2.40;;;5.60;99.90;;;;;;5117902;27;20227;-66
2022/01/15 07:20:00;;;;;;;4.03;2.35;;;5.60;99.90;;;;;;5137276;27;20126;-64
2022/01/15 07:22:25;;;;;;;4.43;2.50;;;5.50;99.90;;;;;;5136756;27;20081;-66
2022/01/15 07:24:51;;;;;;;4.30;2.20;;;5.60;99.90;;;;;;5118634;27;20448;-64
2022/01/15 07:27:17;;;;;;;5.85;2.75;;;5.60;99.90;;;;;;5135925;27;20043;-64
2022/01/15 07:29:42;;;;;;;6.18;3.13;;;5.60;99.90;;;;;;5137053;27;20039;-65
2022/01/15 07:32:08;;;;;;;5.05;2.88;;;5.50;99.90;;;;;;5136761;27;20464;-64
2022/01/15 07:34:34;;;;;;;4.43;2.70;;;5.60;99.90;;;;;;5101278;27;20079;-64
2022/01/15 07:37:00;;;;;;;6.03;3.08;;;5.60;99.90;;;;;;5113729;28;20050;-64
2022/01/15 07:39:26;;;;;;;6.13;3.40;;;5.50;99.90;;;;;;5130144;27;20055;-65
2022/01/15 07:41:55;;;;;;;6.75;3.85;;;5.50;99.90;;;;;;5120463;27;20333;-64
2022/01/15 07:44:21;;;;;;;7.38;3.78;;;5.50;99.90;;;;;;5138885;27;20046;-65
2022/01/15 07:46:46;;;;;;;7.30;3.85;;;5.50;99.90;;;;;;5137516;27;20363;-65
2022/01/15 07:49:12;;;;;;;9.07;4.50;;;5.50;99.90;;;;;;5157277;27;20053;-65
2022/01/15 07:51:38;;;;;;;7.43;4.20;;;5.50;99.90;;;;;;5138448;27;20026;-65
2022/01/15 07:54:04;;;;;;;8.27;4.68;;;5.50;99.90;;;;;;5138878;27;20046;-64
2022/01/15 07:56:29;;;;;;;9.65;5.63;;;5.50;99.90;;;;;;5138033;27;20034;-64
2022/01/15 07:58:55;;;;;;;11.43;6.50;;;5.40;99.90;;;;;;5138979;27;20046;-64
2022/01/15 08:01:21;;;;;;;11.10;6.53;;;5.40;99.90;;;;;;5138552;27;20447;-64
2022/01/15 08:03:48;;;;;;;13.98;7.25;;;5.40;99.90;;;;;;5138185;27;20135;-65
2022/01/15 08:06:14;;;;;;;13.15;7.65;;;5.30;99.90;;;;;;5156886;27;20039;-64
2022/01/15 08:08:40;;;;;;;11.48;6.97;;;5.40;99.90;;;;;;5132925;27;20047;-65
2022/01/15 08:11:06;;;;;;;12.13;7.35;;;5.30;99.90;;;;;;5156180;27;20133;-64
2022/01/15 08:13:32;;;;;;;13.40;7.45;;;5.30;99.90;;;;;;5156688;27;20038;-64
2022/01/15 08:16:01;;;;;;;12.35;7.35;;;5.30;99.90;;;;;;5137363;27;20117;-64
2022/01/15 08:18:27;;;;;;;14.02;7.90;;;5.30;99.90;;;;;;5155231;27;20049;-65
2022/01/15 08:20:53;;;;;;;15.68;8.55;;;5.30;99.90;;;;;;5136105;27;20034;-64
2022/01/15 08:23:19;;;;;;;16.83;9.75;;;5.30;99.90;;;;;;5135270;27;20359;-65
2022/01/15 08:25:44;;;;;;;16.40;10.13;;;5.30;99.90;;;;;;5136098;27;20039;-67
2022/01/15 08:28:10;;;;;;;20.38;11.18;;;5.30;99.90;;;;;;5098680;27;20035;-66
2022/01/15 08:30:36;;;;;;;18.60;11.15;;;5.30;99.90;;;;;;5116054;27;20122;-65
2022/01/15 08:33:02;;;;;;;19.33;10.73;;;5.20;99.90;;;;;;5115795;27;20139;-66
2022/01/15 08:35:28;;;;;;;20.30;11.18;;;5.30;99.90;;;;;;5100328;27;20382;-66
2022/01/15 08:37:54;;;;;;;18.42;11.02;;;5.20;99.90;;;;;;5128934;27;20071;-66
2022/01/15 08:40:21;;;;;;;18.48;11.38;;;5.20;99.90;;;;;;5137619;27;20051;-65
2022/01/15 08:42:48;;;;;;;19.80;11.60;;;5.20;99.90;;;;;;5137591;27;20045;-67
2022/01/15 08:45:15;;;;;;;18.02;11.15;;;5.10;99.90;;;;;;5120421;27;20385;-66
2022/01/15 08:47:44;;;;;;;18.85;10.63;;;5.10;99.90;;;;;;5145814;27;20161;-65
2022/01/15 08:50:11;;;;;;;19.55;11.55;;;5.10;99.90;;;;;;5116948;27;20134;-66
2022/01/15 08:52:39;;;;;;;24.35;13.07;;;5.00;99.90;;;;;;5117285;27;20425;-66
2022/01/15 08:55:06;;;;;;;22.27;13.48;;;5.00;99.90;;;;;;5116775;27;20043;-65
2022/01/15 08:57:32;;;;;;;26.02;13.98;;;5.10;99.90;;;;;;5125152;27;20035;-66
2022/01/15 09:00:00;;;;;;;27.67;13.90;;;5.10;99.90;;;;;;5120322;27;20380;-66
2022/01/15 09:02:26;;;;;;;23.63;13.18;;;5.10;99.90;;;;;;5137034;27;20125;-66
2022/01/15 09:04:52;;;;;;;22.08;12.23;;;5.00;99.90;;;;;;5136792;27;20125;-66
2022/01/15 09:07:19;;;;;;;26.42;13.57;;;5.10;99.90;;;;;;5130335;27;20038;-67
2022/01/15 09:09:45;;;;;;;24.27;13.63;;;5.10;99.90;;;;;;5116675;27;20043;-65
2022/01/15 09:12:15;;;;;;;25.98;15.02;;;5.00;99.90;;;;;;5116568;27;20087;-67
2022/01/15 09:14:41;;;;;;;25.80;14.23;;;5.10;99.90;;;;;;5116187;27;20047;-66
2022/01/15 09:17:07;;;;;;;24.92;13.73;;;5.10;99.90;;;;;;5120721;27;20054;-67
2022/01/15 09:19:33;;;;;;;23.40;13.82;;;5.10;99.90;;;;;;5120046;27;20155;-66
2022/01/15 09:21:59;;;;;;;21.42;12.93;;;5.20;99.90;;;;;;5137280;27;20053;-66
2022/01/15 09:24:25;;;;;;;18.83;11.75;;;5.20;99.90;;;;;;5136751;27;20084;-66
2022/01/15 09:32:06;;;;;;;19.25;11.35;;;5.10;99.90;;;;;;5116430;27;20039;-66
2022/01/15 09:34:34;;;;;;;18.13;10.88;;;5.00;99.90;;;;;;5116082;27;20121;-66
2022/01/15 09:37:04;;;;;;;14.88;9.60;;;5.10;99.90;;;;;;5120105;27;20034;-66
2022/01/15 09:39:30;;;;;;;15.20;8.90;;;5.10;99.90;;;;;;5136707;27;20064;-66
2022/01/15 09:41:56;;;;;;;14.55;9.32;;;5.10;99.90;;;;;;5137104;27;20343;-66
2022/01/15 09:44:24;;;;;;;14.02;8.43;;;5.10;99.90;;;;;;5119100;27;20046;-65
2022/01/15 09:46:51;;;;;;;13.57;9.23;;;5.10;99.90;;;;;;5134183;27;20466;-66
2022/01/15 09:49:19;;;;;;;12.35;8.13;;;5.10;99.90;;;;;;5115944;27;20043;-66
2022/01/15 09:51:46;;;;;;;14.23;9.23;;;5.10;99.90;;;;;;5116158;27;20039;-66
2022/01/15 09:54:14;;;;;;;13.60;8.50;;;5.10;99.90;;;;;;5115417;28;20039;-66
2022/01/15 09:56:40;;;;;;;13.27;8.95;;;5.10;99.90;;;;;;5099276;27;20380;-66
2022/01/15 09:59:06;;;;;;;13.45;9.10;;;5.10;99.90;;;;;;5136340;27;20061;-66
2022/01/15 10:01:32;;;;;;;13.55;9.43;;;5.10;99.90;;;;;;5136418;27;20140;-66
2022/01/15 10:03:59;;;;;;;13.65;9.57;;;5.10;99.90;;;;;;5136246;27;20039;-66
2022/01/15 10:06:27;;;;;;;15.38;9.95;;;5.10;99.90;;;;;;5136457;27;20039;-66
2022/01/15 10:09:09;;;;;;;13.90;10.10;;;5.20;99.90;;;;;;5116744;28;20495;-66
2022/01/15 10:11:52;;;;;;;13.40;8.90;;;5.20;99.90;;;;;;5115621;28;20371;-67
2022/01/15 10:14:27;;;;;;;14.50;9.32;;;5.20;99.90;;;;;;5119863;27;20046;-67
2022/01/15 10:16:55;;;;;;;12.73;9.32;;;5.10;99.90;;;;;;5121654;27;20047;-66
2022/01/15 10:19:29;;;;;;;14.48;9.55;;;5.10;99.90;;;;;;5140580;27;20053;-65
2022/01/15 10:22:08;;;;;;;16.70;11.48;;;5.10;99.90;;;;;;5140648;27;20047;-65
2022/01/15 10:24:35;;;;;;;16.65;11.00;;;5.10;99.90;;;;;;5122981;27;20045;-66
2022/01/15 10:27:31;;;;;;;16.67;11.07;;;5.10;99.90;;;;;;5119887;27;20457;-66
2022/01/15 10:30:02;;;;;;;16.17;11.18;;;5.10;99.90;;;;;;5119887;27;20042;-66
2022/01/15 10:32:31;;;;;;;16.80;11.13;;;5.10;99.90;;;;;;5119644;27;20092;-65
2022/01/15 10:34:57;;;;;;;16.50;11.45;;;5.10;99.90;;;;;;5102565;27;20456;-66
2022/01/15 10:37:35;;;;;;;20.60;12.43;;;5.30;99.90;;;;;;5108836;27;20037;-66
2022/01/15 10:40:07;;;;;;;18.58;12.57;;;5.20;99.90;;;;;;5140642;27;20261;-65
2022/01/15 10:42:35;;;;;;;19.30;12.85;;;5.20;99.90;;;;;;5140533;27;20396;-65
2022/01/15 10:45:13;;;;;;;17.83;12.50;;;5.20;99.90;;;;;;5139812;27;20049;-66
2022/01/15 10:47:47;;;;;;;19.55;12.68;;;5.20;99.90;;;;;;5114298;27;20049;-67
2022/01/15 10:50:36;;;;;;;19.20;12.80;;;5.20;99.90;;;;;;5119384;27;20045;-66
2022/01/15 10:53:10;;;;;;;17.70;12.60;;;5.20;99.90;;;;;;5102110;27;20035;-66
2022/01/15 10:55:36;;;;;;;20.77;13.55;;;5.20;99.90;;;;;;5102235;27;20041;-66
2022/01/15 10:58:13;;;;;;;21.58;14.15;;;5.20;99.90;;;;;;5130716;27;20477;-66
2022/01/15 11:00:41;;;;;;;20.58;13.18;;;5.20;99.90;;;;;;5122515;27;20038;-66
2022/01/15 11:03:07;;;;;;;19.42;13.40;;;5.20;99.90;;;;;;5139314;27;20118;-66
2022/01/15 11:05:42;;;;;;;17.88;12.50;;;5.20;99.90;;;;;;5139890;27;20427;-65
2022/01/15 11:08:28;;;;;;;20.83;13.70;;;5.30;99.90;;;;;;5127033;27;20502;-66
2022/01/15 11:11:04;;;;;;;24.33;13.95;;;5.20;99.90;;;;;;5119427;27;20075;-66
2022/01/15 11:13:35;;;;;;;24.45;14.90;;;5.20;99.90;;;;;;5102324;27;20422;-66
2022/01/15 11:16:07;;;;;;;20.63;13.77;;;5.20;99.90;;;;;;5118764;27;20051;-67
2022/01/15 11:18:36;;;;;;;22.08;14.43;;;5.20;99.90;;;;;;5134887;27;20047;-66
2022/01/15 11:21:13;;;;;;;21.05;14.23;;;5.30;99.90;;;;;;5139593;27;20047;-67
2022/01/15 11:23:40;;;;;;;26.98;15.60;;;5.30;99.90;;;;;;5138554;27;20034;-67
2022/01/15 11:26:10;;;;;;;25.88;15.90;;;5.20;99.90;;;;;;5139237;27;20045;-65
2022/01/15 11:28:36;;;;;;;25.58;15.48;;;5.20;99.90;;;;;;5105676;27;20425;-66
2022/01/15 11:31:21;;;;;;;24.70;15.20;;;5.10;99.90;;;;;;5118550;27;20066;-67
2022/01/15 11:33:50;;;;;;;24.08;14.65;;;5.10;99.90;;;;;;5118160;27;20043;-68
2022/01/15 11:36:32;;;;;;;25.38;15.70;;;5.00;99.90;;;;;;5101595;27;20035;-67
2022/01/15 11:38:59;;;;;;;27.50;15.13;;;5.00;99.90;;;;;;5137404;27;20126;-66
2022/01/15 11:41:28;;;;;;;28.33;15.50;;;5.00;99.90;;;;;;5122346;27;20376;-66
2022/01/15 11:43:57;;;;;;;28.70;15.75;;;5.00;99.90;;;;;;5121409;27;20563;-66
2022/01/15 11:46:27;;;;;;;32.63;15.68;;;5.00;99.90;;;;;;5138771;27;20046;-66
2022/01/15 11:49:28;;;;;;;28.10;15.35;;;5.10;99.90;;;;;;5103295;27;20054;-66
2022/01/15 11:52:18;;;;;;;26.70;15.07;;;5.00;99.90;;;;;;5118275;27;20053;-66
2022/01/15 11:54:58;;;;;;;28.00;15.00;;;5.00;99.90;;;;;;5085159;27;20368;-66
2022/01/15 11:57:48;;;;;;;24.73;12.13;;;5.00;99.90;;;;;;5106709;27;20081;-67
2022/01/15 12:00:23;;;;;;;28.02;13.80;;;5.10;99.90;;;;;;5138823;27;20038;-67
2022/01/15 12:02:59;;;;;;;23.92;12.88;;;5.00;99.90;;;;;;5138141;27;20049;-67
2022/01/15 12:05:27;;;;;;;28.40;13.10;;;4.90;99.90;;;;;;5138882;27;20050;-66
2022/01/15 12:08:02;;;;;;;28.95;13.75;;;4.90;99.90;;;;;;5128567;27;20049;-66
2022/01/15 12:10:45;;;;;;;30.27;13.63;;;4.80;99.90;;;;;;5118024;27;20080;-67
2022/01/15 12:13:20;;;;;;;29.48;13.98;;;4.80;99.90;;;;;;5100461;27;20473;-66
2022/01/15 12:15:46;;;;;;;;;;;4.80;99.90;;;;;;5101147;27;20678;-67
2022/01/15 12:18:20;;;;;;;35.42;14.23;;;4.80;99.90;;;;;;5112975;27;19915;-66
2022/01/15 12:20:46;;;;;;;30.20;14.13;;;4.90;99.90;;;;;;5155892;27;20107;-67
2022/01/15 12:23:18;;;;;;;36.88;15.73;;;4.90;99.90;;;;;;5138162;27;20118;-66
2022/01/15 12:25:44;;;;;;;33.42;15.45;;;4.80;99.90;;;;;;5138266;27;20041;-66
2022/01/15 12:28:13;;;;;;;35.83;16.23;;;4.80;99.90;;;;;;5125530;27;20027;-67
2022/01/15 12:30:46;;;;;;;36.30;15.77;;;4.80;99.90;;;;;;5117407;27;20451;-66
2022/01/15 12:33:14;;;;;;;44.55;16.02;;;4.90;99.90;;;;;;5117295;27;20042;-66
2022/01/15 12:35:47;;;;;;;43.58;16.00;;;4.80;99.90;;;;;;5099483;27;20118;-66
2022/01/15 12:38:39;;;;;;;36.95;16.52;;;4.90;99.90;;;;;;5129555;27;20038;-66
2022/01/15 12:41:06;;;;;;;37.63;16.65;;;5.00;99.90;;;;;;5115887;27;20107;-67
2022/01/15 12:43:35;;;;;;;32.83;15.82;;;4.90;99.90;;;;;;5120460;27;20378;-67
2022/01/15 12:46:06;;;;;;;30.90;15.23;;;4.90;99.90;;;;;;5137729;27;20042;-68
2022/01/15 12:48:34;;;;;;;31.25;15.70;;;4.90;99.90;;;;;;5122205;27;20062;-66
2022/01/15 12:51:20;;;;;;;32.15;15.93;;;5.00;99.90;;;;;;5117016;27;20050;-66
2022/01/15 12:53:49;;;;;;;34.15;16.88;;;5.00;99.90;;;;;;5116737;27;20240;-67
2022/01/15 12:56:18;;;;;;;31.92;17.38;;;5.10;99.90;;;;;;5099808;27;20039;-66
2022/01/15 12:58:45;;;;;;;30.50;17.25;;;5.10;99.90;;;;;;5116381;27;20141;-66
2022/01/15 13:01:20;;;;;;;32.42;16.77;;;5.10;99.90;;;;;;5137216;27;20094;-66
2022/01/15 13:03:45;;;;;;;35.33;18.35;;;5.10;99.90;;;;;;5137151;27;20039;-66
2022/01/15 13:06:11;;;;;;;31.58;17.42;;;5.10;99.90;;;;;;5120250;27;20154;-67
2022/01/15 13:08:42;;;;;;;32.47;17.55;;;5.00;99.90;;;;;;5121223;27;20031;-67
2022/01/15 13:13:41;;;;;;;37.72;17.65;;;5.00;99.90;;;;;;5116342;27;20039;-67
2022/01/15 13:16:16;;;;;;;31.63;17.98;;;4.90;99.90;;;;;;5113217;28;20154;-67
2022/01/15 13:19:04;;;;;;;35.00;18.65;;;4.90;99.90;;;;;;5112219;27;20371;-66